Time;durP1;ratioP1;P1;durP2;ratioP2;P2;SDS_P1;SDS_P2;PMS_P1;PMS_P2;Temp;Humidity;BMP_temperature;BMP_pressure;BME280_temperature;BME280_humidity;BME280_pressure;Samples;Min_cycle;Max_cycle;Signal;HPM_P1;HPM_P2
2021/03/25 00:00:41;;;;;;;;;;;;;;;-144.01;100.00;62166.59;5095720;28;19924;-67
2021/03/25 00:03:11;;;;;;;;;;;;;;;-144.01;100.00;62166.59;5089697;28;19919;-64
2021/03/25 00:05:40;;;;;;;;;;;;;;;-144.01;100.00;62166.59;5115722;28;19923;-63
2021/03/25 00:08:07;;;;;;;;;;;;;;;-144.01;100.00;62166.59;5116297;28;20324;-54
2021/03/25 00:10:38;;;;;;;;;;;;;;;-144.01;100.00;62166.59;5116065;28;20226;-65
2021/03/25 00:13:05;;;;;;;;;;;;;;;-144.01;100.00;62166.59;5087257;28;19912;-70
2021/03/25 00:15:38;;;;;;;;;;;;;;;-144.01;100.00;62166.59;5092208;28;19986;-72
2021/03/25 00:18:06;;;;;;;;;;;;;;;-144.01;100.00;62166.59;5095669;28;20291;-77
2021/03/25 00:20:33;;;;;;;;;;;;;;;-144.01;100.00;62166.59;5094570;28;19923;-76
2021/03/25 00:23:01;;;;;;;;;;;;;;;-144.01;100.00;62166.59;5095376;28;20335;-76
2021/03/25 00:25:32;;;;;;;;;;;;;;;-144.01;100.00;62166.59;5089365;28;19916;-72
2021/03/25 00:27:59;;;;;;;;;;;;;;;-144.01;100.00;62166.59;5095539;28;19912;-75
2021/03/25 00:30:27;;;;;;;;;;;;;;;-144.01;100.00;62166.59;5095616;28;19919;-75
2021/03/25 00:32:56;;;;;;;;;;;;;;;-144.01;100.00;62166.59;5095458;28;19923;-75
2021/03/25 00:35:24;;;;;;;;;;;;;;;-144.01;100.00;62166.59;5114223;28;20257;-75
2021/03/25 00:37:51;;;;;;;;;;;;;;;-144.01;100.00;62166.59;5116407;28;19916;-77
2021/03/25 00:40:18;;;;;;;;;;;;;;;-144.01;100.00;62166.59;5119918;28;19918;-76
2021/03/25 00:42:45;;;;;;;;;;;;;;;-144.01;100.00;62166.59;5120239;28;20233;-76
2021/03/25 00:45:13;;;;;;;;;;;;;;;-144.01;100.00;62166.59;5115345;28;19912;-77
2021/03/25 00:47:40;;;;;;;;;;;;;;;-144.01;100.00;62166.59;5119887;28;19946;-77
2021/03/25 00:50:09;;;;;;;;;;;;;;;-144.01;100.00;62166.59;5119840;28;19916;-75
2021/03/25 00:52:36;;;;;;;;;;;;;;;-144.01;100.00;62166.59;5099236;28;19922;-75
2021/03/25 00:55:04;;;;;;;;;;;;;;;-144.01;100.00;62166.59;5098704;28;19923;-74
2021/03/25 00:57:31;;;;;;;;;;;;;;;-144.01;100.00;62166.59;5081361;28;19923;-75
2021/03/25 00:59:59;;;;;;;;;;;;;;;-144.01;100.00;62166.59;5099245;28;19915;-75
2021/03/25 01:02:26;;;;;;;;;;;;;;;-144.01;100.00;62166.59;5099181;28;19923;-76
2021/03/25 01:04:53;;;;;;;;;;;;;;;-144.01;100.00;62166.59;5094444;28;20333;-74
2021/03/25 01:07:29;;;;;;;;;;;;;;;-144.01;100.00;62166.59;5115924;28;19923;-74
2021/03/25 01:09:58;;;;;;;;;;;;;;;-144.01;100.00;62166.59;5119342;28;19911;-76
2021/03/25 01:12:25;;;;;;;;;;;;;;;-144.01;100.00;62166.59;5113257;28;20206;-75
2021/03/25 01:14:52;;;;;;;;;;;;;;;-144.01;100.00;62166.59;5115937;28;19920;-75
2021/03/25 01:17:19;;;;;;;;;;;;;;;-144.01;100.00;62166.59;5077327;28;19919;-72
2021/03/25 01:19:46;;;;;;;;;;;;;;;-144.01;100.00;62166.59;5098812;28;19912;-70
2021/03/25 01:22:13;;;;;;;;;;;;;;;-144.01;100.00;62166.59;5098659;28;19916;-74
2021/03/25 01:24:40;;;;;;;;;;;;;;;-144.01;100.00;62166.59;5080592;28;19916;-75
2021/03/25 01:27:07;;;;;;;;;;;;;;;-144.01;100.00;62166.59;5080846;28;19919;-76
2021/03/25 01:29:36;;;;;;;;;;;;;;;-144.01;100.00;62166.59;5064472;28;19942;-67
2021/03/25 01:32:03;;;;;;;;;;;;;;;-144.01;100.00;62166.59;5098744;28;19919;-75
2021/03/25 01:34:31;;;;;;;;;;;;;;;-144.01;100.00;62166.59;5098167;28;20246;-67
2021/03/25 01:36:59;;;;;;;;;;;;;;;-144.01;100.00;62166.59;5088191;28;19923;-76
2021/03/25 01:39:50;;;;;;;;;;;;;;;-144.01;100.00;62166.59;5088180;28;19912;-75
2021/03/25 01:42:25;;;;;;;;;;;;;;;-144.01;100.00;62166.59;5098164;28;19916;-70
2021/03/25 01:44:55;;;;;;;;;;;;;;;-144.01;100.00;62166.59;5091478;28;19916;-76
2021/03/25 01:47:23;;;;;;;;;;;;;;;-144.01;100.00;62166.59;5076683;28;19912;-57
2021/03/25 01:49:50;;;;;;;;;;;;;;;-144.01;100.00;62166.59;5097005;28;19919;-55
2021/03/25 01:52:34;;;;;;;;;;;;;;;-144.01;100.00;62166.59;5096897;28;19912;-63
2021/03/25 01:55:08;;;;;;;;;;;;;;;-144.01;100.00;62166.59;5078474;28;19918;-75
2021/03/25 01:57:53;;;;;;;;;;;;;;;-144.01;100.00;62166.59;5081873;28;19912;-68
2021/03/25 02:00:35;;;;;;;;;;;;;;;-144.01;100.00;62166.59;5080047;28;19920;-69
2021/03/25 02:03:23;;;;;;;;;;;;;;;-144.01;100.00;62166.59;5091898;28;19916;-74
2021/03/25 02:05:56;;;;;;;;;;;;;;;-144.01;100.00;62166.59;5079123;28;20330;-56
2021/03/25 02:08:39;;;;;;;;;;;;;;;-144.01;100.00;62166.59;5063225;28;19912;-61
2021/03/25 02:11:08;;;;;;;;;;;;;;;-144.01;100.00;62166.59;5096448;28;19927;-68
2021/03/25 02:13:42;;;;;;;;;;;;;;;-144.01;100.00;62166.59;5061670;28;19920;-59
2021/03/25 02:16:13;;;;;;;;;;;;;;;-144.01;100.00;62166.59;5061841;28;19912;-54
2021/03/25 02:19:41;;;;;;;;;;;;;;;-144.01;100.00;62166.59;5085927;28;19911;-51
2021/03/25 02:22:28;;;;;;;;;;;;;;;-144.01;100.00;62166.59;5032695;28;20024;-73
2021/03/25 02:25:00;;;;;;;;;;;;;;;-144.01;100.00;62166.59;5015960;28;19913;-64
2021/03/25 02:28:10;;;;;;;;;;;;;;;-144.01;100.00;62166.59;5021397;28;19913;-52
2021/03/25 02:30:56;;;;;;;;;;;;;;;-144.01;100.00;62166.59;5018211;28;19917;-51
2021/03/25 02:33:34;;;;;;;;;;;;;;;-144.01;100.00;62166.59;5047031;28;19919;-55
2021/03/25 02:36:17;;;;;;;;;;;;;;;-144.01;100.00;62166.59;5103905;28;19924;-54
2021/03/25 02:38:47;;;;;;;;;;;;;;;-144.01;100.00;62166.59;5078981;28;20254;-56
2021/03/25 02:41:30;;;;;;;;;;;;;;;-144.01;100.00;62166.59;5075745;28;19919;-51
2021/03/25 02:44:16;;;;;;;;;;;;;;;-144.01;100.00;62166.59;5083573;28;19912;-62
2021/03/25 02:46:53;;;;;;;;;;;;;;;-144.01;100.00;62166.59;5099403;28;19919;-60
2021/03/25 02:49:24;;;;;;;;;;;;;;;-144.01;100.00;62166.59;5100100;28;19915;-50
2021/03/25 02:51:54;;;;;;;;;;;;;;;-144.01;100.00;62166.59;5091237;28;20417;-50
2021/03/25 02:54:28;;;;;;;;;;;;;;;-144.01;100.00;62166.59;5093663;28;19912;-51
2021/03/25 02:56:57;;;;;;;;;;;;;;;-144.01;100.00;62166.59;5075524;28;20254;-55
2021/03/25 02:59:33;;;;;;;;;;;;;;;-144.01;100.00;62166.59;5076389;28;19994;-49
2021/03/25 03:02:35;;;;;;;;;;;;;;;-144.01;100.00;62166.59;5079301;28;19923;-55
2021/03/25 03:05:22;;;;;;;;;;;;;;;-144.01;100.00;62166.59;5054204;28;19923;-52
2021/03/25 03:08:06;;;;;;;;;;;;;;;-144.01;100.00;62166.59;5110049;28;19923;-52
2021/03/25 03:10:37;;;;;;;;;;;;;;;-144.01;100.00;62166.59;5099106;28;19918;-51
2021/03/25 03:13:05;;;;;;;;;;;;;;;-144.01;100.00;62166.59;5116116;28;19912;-65
2021/03/25 03:15:42;;;;;;;;;;;;;;;-144.01;100.00;62166.59;5086705;28;19916;-54
2021/03/25 03:18:21;;;;;;;;;;;;;;;-144.01;100.00;62166.59;5047535;28;20254;-54
2021/03/25 03:21:30;;;;;;;;;;;;;;;-144.01;100.00;62166.59;5080519;28;19912;-53
2021/03/25 03:24:18;;;;;;;;;;;;;;;-144.01;100.00;62166.59;5092592;28;20301;-56
2021/03/25 03:27:14;;;;;;;;;;;;;;;-144.01;100.00;62166.59;5081885;28;19923;-55
2021/03/25 03:29:43;;;;;;;;;;;;;;;-144.01;100.00;62166.59;5061858;28;19919;-50
2021/03/25 03:32:10;;;;;;;;;;;;;;;-144.01;100.00;62166.59;5062002;28;19912;-51
2021/03/25 03:34:50;;;;;;;;;;;;;;;-144.01;100.00;62166.59;5095858;28;19916;-70
2021/03/25 03:37:19;;;;;;;;;;;;;;;-144.01;100.00;62166.59;5095994;28;20313;-66
2021/03/25 03:39:58;;;;;;;;;;;;;;;-144.01;100.00;62166.59;5057816;28;19912;-74
2021/03/25 03:42:41;;;;;;;;;;;;;;;-144.01;100.00;62166.59;5078088;28;19927;-74
2021/03/25 03:45:13;;;;;;;;;;;;;;;-144.01;100.00;62166.59;5083028;28;20218;-77
2021/03/25 03:47:43;;;;;;;;;;;;;;;-144.01;100.00;62166.59;5081401;28;20225;-76
2021/03/25 03:50:22;;;;;;;;;;;;;;;-144.01;100.00;62166.59;5098748;28;19911;-75
2021/03/25 03:52:49;;;;;;;;;;;;;;;-144.01;100.00;62166.59;5098487;28;19919;-76
2021/03/25 03:55:17;;;;;;;;;;;;;;;-144.01;100.00;62166.59;5115975;28;19922;-72
2021/03/25 03:57:50;;;;;;;;;;;;;;;-144.01;100.00;62166.59;5097755;28;19919;-59
2021/03/25 04:00:41;;;;;;;;;;;;;;;-144.01;100.00;62166.59;5099527;28;19912;-68
2021/03/25 04:03:23;;;;;;;;;;;;;;;-144.01;100.00;62166.59;5116255;28;19916;-73
2021/03/25 04:06:22;;;;;;;;;;;;;;;-144.01;100.00;62166.59;5101943;28;19923;-77
2021/03/25 04:09:11;;;;;;;;;;;;;;;-144.01;100.00;62166.59;5072966;28;19916;-70
2021/03/25 04:11:53;;;;;;;;;;;;;;;-144.01;100.00;62166.59;5102661;28;19916;-62
2021/03/25 04:14:24;;;;;;;;;;;;;;;-144.01;100.00;62166.59;5081244;28;19920;-67
2021/03/25 04:17:06;;;;;;;;;;;;;;;-144.01;100.00;62166.59;5103876;28;19923;-68
2021/03/25 04:19:36;;;;;;;;;;;;;;;-144.01;100.00;62166.59;5074406;28;19916;-65
2021/03/25 04:22:24;;;;;;;;;;;;;;;-144.01;100.00;62166.59;5073527;28;19916;-73
2021/03/25 04:25:10;;;;;;;;;;;;;;;-144.01;100.00;62166.59;5099697;28;19912;-62
2021/03/25 04:27:39;;;;;;;;;;;;;;;-144.01;100.00;62166.59;5099346;28;20311;-75
2021/03/25 04:30:07;;;;;;;;;;;;;;;-144.01;100.00;62166.59;5099864;28;20329;-77
2021/03/25 04:32:34;;;;;;;;;;;;;;;-144.01;100.00;62166.59;5088735;28;19912;-77
2021/03/25 04:35:03;;;;;;;;;;;;;;;-144.01;100.00;62166.59;5081160;28;19923;-76
2021/03/25 04:37:30;;;;;;;;;;;;;;;-144.01;100.00;62166.59;5072908;28;19917;-76
2021/03/25 04:39:57;;;;;;;;;;;;;;;-144.01;100.00;62166.59;5061511;28;19916;-76
2021/03/25 04:42:24;;;;;;;;;;;;;;;-144.01;100.00;62166.59;5061458;28;19924;-76
2021/03/25 04:44:52;;;;;;;;;;;;;;;-144.01;100.00;62166.59;5078863;28;19920;-76
2021/03/25 04:47:23;;;;;;;;;;;;;;;-144.01;100.00;62166.59;5060965;28;20295;-75
2021/03/25 04:50:10;;;;;;;;;;;;;;;-144.01;100.00;62166.59;5078882;28;19916;-71
2021/03/25 04:52:48;;;;;;;;;;;;;;;-144.01;100.00;62166.59;5077424;28;20303;-76
2021/03/25 04:55:20;;;;;;;;;;;;;;;-144.01;100.00;62166.59;5078396;28;20322;-62
2021/03/25 04:57:50;;;;;;;;;;;;;;;-144.01;100.00;62166.59;5078495;28;19927;-64
2021/03/25 05:00:23;;;;;;;;;;;;;;;-144.01;100.00;62166.59;5072595;28;20303;-75
2021/03/25 05:02:50;;;;;;;;;;;;;;;-144.01;100.00;62166.59;5061086;28;19924;-75
2021/03/25 05:05:17;;;;;;;;;;;;;;;-144.01;100.00;62166.59;5080887;28;19927;-76
2021/03/25 05:07:46;;;;;;;;;;;;;;;-144.01;100.00;62166.59;5074513;28;19919;-76
2021/03/25 05:10:18;;;;;;;;;;;;;;;-144.01;100.00;62166.59;5044579;28;19912;-76
2021/03/25 05:12:45;;;;;;;;;;;;;;;-144.01;100.00;62166.59;5078498;28;19912;-56
2021/03/25 05:15:12;;;;;;;;;;;;;;;-144.01;100.00;62166.59;5078082;28;20230;-59
2021/03/25 05:17:39;;;;;;;;;;;;;;;-144.01;100.00;62166.59;5060473;28;19943;-65
2021/03/25 05:20:06;;;;;;;;;;;;;;;-144.01;100.00;62166.59;5078496;28;19912;-62
2021/03/25 05:22:39;;;;;;;;;;;;;;;-144.01;100.00;62166.59;5078102;28;19947;-59
2021/03/25 05:25:11;;;;;;;;;;;;;;;-144.01;100.00;62166.59;5078770;28;19920;-54
2021/03/25 05:27:49;;;;;;;;;;;;;;;-144.01;100.00;62166.59;5063970;28;20218;-51
2021/03/25 05:30:23;;;;;;;;;;;;;;;-144.01;100.00;62166.59;5078183;28;20303;-50
2021/03/25 05:32:51;;;;;;;;;;;;;;;-144.01;100.00;62166.59;5079234;28;19914;-47
2021/03/25 05:35:19;;;;;;;;;;;;;;;-144.01;100.00;62166.59;5060036;28;19974;-47
2021/03/25 05:37:46;;;;;;;;;;;;;;;-144.01;100.00;62166.59;5088828;28;19939;-47
2021/03/25 05:40:19;;;;;;;;;;;;;;;-144.01;100.00;62166.59;5076979;28;19912;-49
2021/03/25 05:42:52;;;;;;;;;;;;;;;-144.01;100.00;62166.59;5060519;28;19920;-46
2021/03/25 05:45:25;;;;;;;;;;;;;;;-144.01;100.00;62166.59;5060132;28;20266;-49
2021/03/25 05:48:08;;;;;;;;;;;;;;;-144.01;100.00;62166.59;5062085;28;19912;-59
2021/03/25 05:50:37;;;;;;;;;;;;;;;-144.01;100.00;62166.59;5060238;28;19913;-63
2021/03/25 05:53:23;;;;;;;;;;;;;;;-144.01;100.00;62166.59;5060294;28;20307;-66
2021/03/25 05:55:53;;;;;;;;;;;;;;;-144.01;100.00;62166.59;5076916;28;19912;-64
2021/03/25 05:58:23;;;;;;;;;;;;;;;-144.01;100.00;62166.59;5077534;28;19919;-61
2021/03/25 06:01:08;;;;;;;;;;;;;;;-144.01;100.00;62166.59;5077468;28;19912;-63
2021/03/25 06:03:35;;;;;;;;;;;;;;;-144.01;100.00;62166.59;5077148;28;19916;-63
2021/03/25 06:06:02;;;;;;;;;;;;;;;-144.01;100.00;62166.59;5049521;28;19923;-64
2021/03/25 06:08:31;;;;;;;;;;;;;;;-144.01;100.00;62166.59;5077545;28;19913;-60
2021/03/25 06:11:12;;;;;;;;;;;;;;;-144.01;100.00;62166.59;5059942;28;19912;-59
2021/03/25 06:13:42;;;;;;;;;;;;;;;-144.01;100.00;62166.59;5070545;28;19919;-48
2021/03/25 06:16:27;;;;;;;;;;;;;;;-144.01;100.00;62166.59;5097608;28;20234;-49
2021/03/25 06:18:58;;;;;;;;;;;;;;;-144.01;100.00;62166.59;5079808;28;20250;-52
2021/03/25 06:21:24;;;;;;;;;;;;;;;-144.01;100.00;62166.59;5097566;28;19926;-50
2021/03/25 06:23:51;;;;;;;;;;;;;;;-144.01;100.00;62166.59;5097237;28;19916;-47
2021/03/25 06:26:37;;;;;;;;;;;;;;;-144.01;100.00;62166.59;5097350;28;19912;-48
2021/03/25 06:29:07;;;;;;;;;;;;;;;-144.01;100.00;62166.59;5089537;28;19912;-47
2021/03/25 06:31:34;;;;;;;;;;;;;;;-144.01;100.00;62166.59;5077113;28;20296;-48
2021/03/25 06:34:02;;;;;;;;;;;;;;;-144.01;100.00;62166.59;5076764;28;19912;-49
2021/03/25 06:36:49;;;;;;;;;;;;;;;-144.01;100.00;62166.59;5061495;28;19924;-48
2021/03/25 06:39:42;;;;;;;;;;;;;;;-144.01;100.00;62166.59;5035054;28;19923;-47
2021/03/25 06:42:13;;;;;;;;;;;;;;;-144.01;100.00;62166.59;5073404;28;19931;-49
2021/03/25 06:44:42;;;;;;;;;;;;;;;-144.01;100.00;62166.59;5076628;28;19913;-49
2021/03/25 06:47:29;;;;;;;;;;;;;;;-144.01;100.00;62166.59;5059310;28;19912;-48
2021/03/25 06:49:58;;;;;;;;;;;;;;;-144.01;100.00;62166.59;5062300;28;19920;-49
2021/03/25 06:52:28;;;;;;;;;;;;;;;-144.01;100.00;62166.59;5070086;28;20255;-56
2021/03/25 06:55:15;;;;;;;;;;;;;;;-144.01;100.00;62166.59;5075496;28;19916;-51
2021/03/25 06:57:42;;;;;;;;;;;;;;;-144.01;100.00;62166.59;5076133;28;19912;-52
2021/03/25 07:00:10;;;;;;;;;;;;;;;-144.01;100.00;62166.59;5076373;28;19912;-49
2021/03/25 07:02:37;;;;;;;;;;;;;;;-144.01;100.00;62166.59;5058986;28;19932;-50
2021/03/25 07:05:05;;;;;;;;;;;;;;;-144.01;100.00;62166.59;5076125;28;19916;-50
2021/03/25 07:07:41;;;;;;;;;;;;;;;-144.01;100.00;62166.59;5076510;28;19979;-48
2021/03/25 07:10:08;;;;;;;;;;;;;;;-144.01;100.00;62166.59;5058558;28;19916;-51
2021/03/25 07:12:37;;;;;;;;;;;;;;;-144.01;100.00;62166.59;5076462;28;19942;-57
2021/03/25 07:15:04;;;;;;;;;;;;;;;-144.01;100.00;62166.59;5076114;28;19913;-48
2021/03/25 07:17:34;;;;;;;;;;;;;;;-144.01;100.00;62166.59;5058698;28;19913;-47
2021/03/25 07:20:03;;;;;;;;;;;;;;;-144.01;100.00;62166.59;5075988;28;20311;-47
2021/03/25 07:22:31;;;;;;;;;;;;;;;-144.01;100.00;62166.59;5076157;28;19916;-50
2021/03/25 07:25:14;;;;;;;;;;;;;;;-144.01;100.00;62166.59;5076039;28;19917;-48
2021/03/25 07:27:41;;;;;;;;;;;;;;;-144.01;100.00;62166.59;5076154;28;19916;-48
2021/03/25 07:30:18;;;;;;;;;;;;;;;-144.01;100.00;62166.59;5058264;28;20322;-50
2021/03/25 07:32:52;;;;;;;;;;;;;;;-144.01;100.00;62166.59;5076086;28;20318;-50
2021/03/25 07:35:36;;;;;;;;;;;;;;;-144.01;100.00;62166.59;5076362;28;19924;-48
2021/03/25 07:38:15;;;;;;;;;;;;;;;-144.01;100.00;62166.59;5096048;28;19908;-47
2021/03/25 07:40:43;;;;;;;;;;;;;;;-144.01;100.00;62166.59;5074676;28;19916;-46
2021/03/25 07:43:18;;;;;;;;;;;;;;;-144.01;100.00;62166.59;5074640;28;19916;-53
2021/03/25 07:45:45;;;;;;;;;;;;;;;-144.01;100.00;62166.59;5057856;28;19912;-47
2021/03/25 07:48:23;;;;;;;;;;;;;;;-144.01;100.00;62166.59;5074946;28;19916;-55
2021/03/25 07:50:50;;;;;;;;;;;;;;;-144.01;100.00;62166.59;5090625;28;19916;-50
2021/03/25 07:53:22;;;;;;;;;;;;;;;-144.01;100.00;62166.59;5084197;28;19923;-47
2021/03/25 07:55:49;;;;;;;;;;;;;;;-144.01;100.00;62166.59;5095762;28;19926;-55
2021/03/25 07:58:17;;;;;;;;;;;;;;;-144.01;100.00;62166.59;5093206;28;19912;-49
2021/03/25 08:00:44;;;;;;;;;;;;;;;-144.01;100.00;62166.59;5075472;28;19919;-52
2021/03/25 08:03:17;;;;;;;;;;;;;;;-144.01;100.00;62166.59;5075423;28;19947;-50
2021/03/25 08:05:45;;;;;;;;;;;;;;;-144.01;100.00;62166.59;5074097;28;20242;-55
2021/03/25 08:08:23;;;;;;;;;;;;;;;-144.01;100.00;62166.59;5075626;28;19912;-50
2021/03/25 08:10:50;;;;;;;;;;;;;;;-144.01;100.00;62166.59;5074248;28;19916;-56
2021/03/25 08:13:24;;;;;;;;;;;;;;;-144.01;100.00;62166.59;5074460;28;20406;-49
2021/03/25 08:16:06;;;;;;;;;;;;;;;-144.01;100.00;62166.59;5074313;28;19912;-56
2021/03/25 08:18:53;;;;;;;;;;;;;;;-144.01;100.00;62166.59;5075525;28;19924;-59
2021/03/25 08:21:23;;;;;;;;;;;;;;;-144.01;100.00;62166.59;5095598;28;19919;-62
2021/03/25 08:23:52;;;;;;;;;;;;;;;-144.01;100.00;62166.59;5095684;28;19927;-59
2021/03/25 08:26:25;;;;;;;;;;;;;;;-144.01;100.00;62166.59;5078916;28;19912;-60
2021/03/25 08:28:57;;;;;;;;;;;;;;;-144.01;100.00;62166.59;5074967;28;19919;-54
2021/03/25 08:31:24;;;;;;;;;;;;;;;-144.01;100.00;62166.59;5083091;28;20334;-52
2021/03/25 08:33:51;;;;;;;;;;;;;;;-144.01;100.00;62166.59;5075343;28;19919;-51
2021/03/25 08:36:27;;;;;;;;;;;;;;;-144.01;100.00;62166.59;5074831;28;20239;-51
2021/03/25 08:38:54;;;;;;;;;;;;;;;-144.01;100.00;62166.59;5074264;28;19919;-55
2021/03/25 08:41:23;;;;;;;;;;;;;;;-144.01;100.00;62166.59;5075434;28;20296;-48
2021/03/25 08:43:49;;;;;;;;;;;;;;;-144.01;100.00;62166.59;5075453;28;19920;-62
2021/03/25 08:46:18;;;;;;;;;;;;;;;-144.01;100.00;62166.59;5075312;28;19912;-51
2021/03/25 08:48:53;;;;;;;;;;;;;;;-144.01;100.00;62166.59;5057652;28;20330;-53
2021/03/25 08:51:24;;;;;;;;;;;;;;;-144.01;100.00;62166.59;5069267;28;19919;-52
2021/03/25 08:54:03;;;;;;;;;;;;;;;-144.01;100.00;62166.59;5075346;28;19912;-49
2021/03/25 08:56:46;;;;;;;;;;;;;;;-144.01;100.00;62166.59;5075327;28;20315;-62
2021/03/25 08:59:23;;;;;;;;;;;;;;;-144.01;100.00;62166.59;5063123;28;19912;-51
2021/03/25 09:02:03;;;;;;;;;;;;;;;-144.01;100.00;62166.59;5099239;28;19919;-52
2021/03/25 09:04:34;;;;;;;;;;;;;;;-144.01;100.00;62166.59;5081777;28;19920;-54
2021/03/25 09:07:01;;;;;;;;;;;;;;;-144.01;100.00;62166.59;5092836;28;19926;-53
2021/03/25 09:09:39;;;;;;;;;;;;;;;-144.01;100.00;62166.59;5078418;28;19923;-57
2021/03/25 09:12:10;;;;;;;;;;;;;;;-144.01;100.00;62166.59;5061160;28;19913;-48
2021/03/25 09:14:37;;;;;;;;;;;;;;;-144.01;100.00;62166.59;5078507;28;19916;-53
2021/03/25 09:17:05;;;;;;;;;;;;;;;-144.01;100.00;62166.59;5078558;28;19912;-64
2021/03/25 09:19:37;;;;;;;;;;;;;;;-144.01;100.00;62166.59;5078311;28;19920;-52
2021/03/25 09:22:05;;;;;;;;;;;;;;;-144.01;100.00;62166.59;5078505;28;19919;-56
2021/03/25 09:24:32;;;;;;;;;;;;;;;-144.01;100.00;62166.59;5078230;28;20331;-56
2021/03/25 09:27:03;;;;;;;;;;;;;;;-144.01;100.00;62166.59;5060743;28;19912;-50
2021/03/25 09:29:32;;;;;;;;;;;;;;;-144.01;100.00;62166.59;5060470;28;19912;-56
2021/03/25 09:31:58;;;;;;;;;;;;;;;-144.01;100.00;62166.59;5078314;28;19912;-67
2021/03/25 09:34:25;;;;;;;;;;;;;;;-144.01;100.00;62166.59;5060510;28;19912;-67
2021/03/25 09:36:54;;;;;;;;;;;;;;;-144.01;100.00;62166.59;5077728;28;20231;-46
2021/03/25 09:39:21;;;;;;;;;;;;;;;-144.01;100.00;62166.59;5076107;28;19919;-56
2021/03/25 09:41:48;;;;;;;;;;;;;;;-144.01;100.00;62166.59;5093685;28;19916;-50
2021/03/25 09:44:24;;;;;;;;;;;;;;;-144.01;100.00;62166.59;5076746;28;19917;-52
2021/03/25 09:46:54;;;;;;;;;;;;;;;-144.01;100.00;62166.59;5076747;28;19912;-47
2021/03/25 09:49:41;;;;;;;;;;;;;;;-144.01;100.00;62166.59;5081464;28;19916;-67
2021/03/25 09:52:12;;;;;;;;;;;;;;;-144.01;100.00;62166.59;5078098;28;19923;-67
2021/03/25 09:54:54;;;;;;;;;;;;;;;-144.01;100.00;62166.59;5077490;28;19913;-66
2021/03/25 09:57:30;;;;;;;;;;;;;;;-144.01;100.00;62166.59;5077631;28;20227;-66
2021/03/25 09:59:58;;;;;;;;;;;;;;;-144.01;100.00;62166.59;5076272;28;19923;-56
2021/03/25 10:02:41;;;;;;;;;;;;;;;-144.01;100.00;62166.59;5077414;28;19912;-57
2021/03/25 10:05:35;;;;;;;;;;;;;;;-144.01;100.00;62166.59;5079260;28;19924;-59
2021/03/25 10:08:08;;;;;;;;;;;;;;;-144.01;100.00;62166.59;5092593;28;19919;-47
2021/03/25 10:10:40;;;;;;;;;;;;;;;-144.01;100.00;62166.59;5076220;28;20311;-67
2021/03/25 10:13:15;;;;;;;;;;;;;;;-144.01;100.00;62166.59;5077265;28;20296;-65
2021/03/25 10:15:43;;;;;;;;;;;;;;;-144.01;100.00;62166.59;5077069;28;19912;-66
2021/03/25 10:18:16;;;;;;;;;;;;;;;-144.01;100.00;62166.59;5077070;28;19919;-66
2021/03/25 10:21:03;;;;;;;;;;;;;;;-144.01;100.00;62166.59;5076681;28;19923;-65
2021/03/25 10:23:53;;;;;;;;;;;;;;;-144.01;100.00;62166.59;5077050;28;19916;-65
2021/03/25 10:26:24;;;;;;;;;;;;;;;-144.01;100.00;62166.59;5059346;28;19912;-59
2021/03/25 10:29:04;;;;;;;;;;;;;;;-144.01;100.00;62166.59;5075958;28;19916;-67
2021/03/25 10:31:49;;;;;;;;;;;;;;;-144.01;100.00;62166.59;5059235;28;19912;-67
2021/03/25 10:34:20;;;;;;;;;;;;;;;-144.01;100.00;62166.59;5059150;28;19919;-66
2021/03/25 10:36:51;;;;;;;;;;;;;;;-144.01;100.00;62166.59;5078853;28;19920;-65
2021/03/25 10:39:20;;;;;;;;;;;;;;;-144.01;100.00;62166.59;5059061;28;19931;-63
2021/03/25 10:41:47;;;;;;;;;;;;;;;-144.01;100.00;62166.59;5076101;28;19917;-66
2021/03/25 10:44:20;;;;;;;;;;;;;;;-144.01;100.00;62166.59;5076116;28;20299;-66
2021/03/25 10:46:47;;;;;;;;;;;;;;;-144.01;100.00;62166.59;5076958;28;20333;-57
2021/03/25 10:49:15;;;;;;;;;;;;;;;-144.01;100.00;62166.59;5058960;28;19919;-67
2021/03/25 10:51:43;;;;;;;;;;;;;;;-144.01;100.00;62166.59;5059450;28;20294;-57
2021/03/25 10:54:27;;;;;;;;;;;;;;;-144.01;100.00;62166.59;5059034;28;19923;-57
2021/03/25 10:56:56;;;;;;;;;;;;;;;-144.01;100.00;62166.59;5059155;28;19942;-56
2021/03/25 10:59:29;;;;;;;;;;;;;;;-144.01;100.00;62166.59;5076791;28;20337;-56
2021/03/25 11:01:57;;;;;;;;;;;;;;;-144.01;100.00;62166.59;5076703;28;20303;-56
2021/03/25 11:04:25;;;;;;;;;;;;;;;-144.01;100.00;62166.59;5076370;28;19923;-56
2021/03/25 11:06:52;;;;;;;;;;;;;;;-144.01;100.00;62166.59;5058707;28;19916;-57
2021/03/25 11:09:27;;;;;;;;;;;;;;;-144.01;100.00;62166.59;5076220;28;19920;-55
2021/03/25 11:11:54;;;;;;;;;;;;;;;-144.01;100.00;62166.59;5076414;28;19912;-56
2021/03/25 11:14:36;;;;;;;;;;;;;;;-144.01;100.00;62166.59;5058776;28;19920;-59
2021/03/25 11:17:09;;;;;;;;;;;;;;;-144.01;100.00;62166.59;5058792;28;20327;-56
2021/03/25 11:19:36;;;;;;;;;;;;;;;-144.01;100.00;62166.59;5058488;28;19912;-57
2021/03/25 11:22:03;;;;;;;;;;;;;;;-144.01;100.00;62166.59;5076261;28;19913;-56
2021/03/25 11:24:32;;;;;;;;;;;;;;;-144.01;100.00;62166.59;5058443;28;20295;-61
2021/03/25 11:27:00;;;;;;;;;;;;;;;-144.01;100.00;62166.59;5076134;28;19912;-57
2021/03/25 11:29:29;;;;;;;;;;;;;;;-144.01;100.00;62166.59;5075900;28;20283;-57
2021/03/25 11:32:19;;;;;;;;;;;;;;;-144.01;100.00;62166.59;5070598;28;19912;-57
2021/03/25 11:34:47;;;;;;;;;;;;;;;-144.01;100.00;62166.59;5065076;28;19920;-58
2021/03/25 11:37:15;;;;;;;;;;;;;;;-144.01;100.00;62166.59;5092224;28;19927;-60
2021/03/25 11:39:58;;;;;;;;;;;;;;;-144.01;100.00;62166.59;5083344;28;19920;-56
2021/03/25 11:42:27;;;;;;;;;;;;;;;-144.01;100.00;62166.59;5075848;28;19916;-57
2021/03/25 11:44:55;;;;;;;;;;;;;;;-144.01;100.00;62166.59;5075190;28;19916;-58
2021/03/25 11:47:42;;;;;;;;;;;;;;;-144.01;100.00;62166.59;5075760;28;20212;-58
2021/03/25 11:50:15;;;;;;;;;;;;;;;-144.01;100.00;62166.59;5075746;28;19917;-60
2021/03/25 11:52:49;;;;;;;;;;;;;;;-144.01;100.00;62166.59;5075343;28;19938;-59
2021/03/25 11:55:20;;;;;;;;;;;;;;;-144.01;100.00;62166.59;5075467;28;19923;-58
2021/03/25 11:57:47;;;;;;;;;;;;;;;-144.01;100.00;62166.59;5074607;28;20208;-59
2021/03/25 12:00:32;;;;;;;;;;;;;;;-144.01;100.00;62166.59;5074615;28;19913;-60
2021/03/25 12:03:13;;;;;;;;;;;;;;;-144.01;100.00;62166.59;5075171;28;20295;-59
2021/03/25 12:05:45;;;;;;;;;;;;;;;-144.01;100.00;62166.59;5075588;28;20253;-67
2021/03/25 12:08:12;;;;;;;;;;;;;;;-144.01;100.00;62166.59;5075636;28;20234;-65
2021/03/25 12:10:39;;;;;;;;;;;;;;;-144.01;100.00;62166.59;5075583;28;19917;-66
2021/03/25 12:13:06;;;;;;;;;;;;;;;-144.01;100.00;62166.59;5075288;28;19913;-66
2021/03/25 12:15:33;;;;;;;;;;;;;;;-144.01;100.00;62166.59;5075328;28;19912;-67
2021/03/25 12:18:00;;;;;;;;;;;;;;;-144.01;100.00;62166.59;5075603;28;19912;-66
2021/03/25 12:20:32;;;;;;;;;;;;;;;-144.01;100.00;62166.59;5074496;28;19920;-67
2021/03/25 12:23:05;;;;;;;;;;;;;;;-144.01;100.00;62166.59;5074080;28;19920;-66
2021/03/25 12:25:32;;;;;;;;;;;;;;;-144.01;100.00;62166.59;5075394;28;19946;-67
2021/03/25 12:27:59;;;;;;;;;;;;;;;-144.01;100.00;62166.59;5075541;28;19920;-67
2021/03/25 12:30:26;;;;;;;;;;;;;;;-144.01;100.00;62166.59;5075437;28;19912;-65
2021/03/25 12:32:53;;;;;;;;;;;;;;;-144.01;100.00;62166.59;5075083;28;19912;-67
2021/03/25 12:35:21;;;;;;;;;;;;;;;-144.01;100.00;62166.59;5077746;28;20319;-66
2021/03/25 12:37:48;;;;;;;;;;;;;;;-144.01;100.00;62166.59;5079424;28;19912;-66
2021/03/25 12:40:16;;;;;;;;;;;;;;;-144.01;100.00;62166.59;5079520;28;20261;-66
2021/03/25 12:42:43;;;;;;;;;;;;;;;-144.01;100.00;62166.59;5079400;28;19920;-66
2021/03/25 12:45:20;;;;;;;;;;;;;;;-144.01;100.00;62166.59;5078937;28;19920;-66
2021/03/25 12:47:47;;;;;;;;;;;;;;;-144.01;100.00;62166.59;5079580;28;19913;-65